Royal Melbourne — WDC2865 — position and weather

sailwx.info

Track history (hours):
 
Tides and Currents Weather Stations Pressure Air Temp Water Temp Dewpoint Dewpoint Depression Visibility Wind Speed Wind Dir Waves Ship Positions

Royal Melbourne

Owner: Harley Marine Services, Inc, Seattle, WA. More information available from US FCC via Universal Licensing System and Coast Guard Vessel Documentation Center.

Last reported at 2016-Jun-30 04:33 UTC. Time now 2016-Jun-30 05:08 UTC.
Position N 37°48' W 122°17'.

Length 30 m; draft 2 m.

Type: Tug. MMSI: 366998830.

Date/timePositionNaut miles runAvg speedWind from/ knotsBaromVisibWave heightAir tempDewpointWater temp
2016-Jun-30 04:33N 37°48' W 122°17'0 0.0
2016-Jun-30 03:33N 37°48' W 122°17'0 0.0
2016-Jun-30 02:33N 37°48' W 122°17'0 0.0
2016-Jun-30 01:33N 37°48' W 122°17'0 0.0
2016-Jun-30 00:33N 37°48' W 122°17'0 0.0
2016-Jun-29 23:33N 37°48' W 122°17'0 0.0
2016-Jun-29 22:33N 37°48' W 122°17'0 0.0
2016-Jun-29 21:33N 37°48' W 122°17'0 0.0
2016-Jun-29 20:33N 37°48' W 122°17'0 0.0
2016-Jun-29 19:33N 37°48' W 122°17'0 0.0
2016-Jun-29 18:33N 37°48' W 122°17'2 2.0
2016-Jun-29 17:34N 37°48' W 122°20'7 6.1
2016-Jun-29 16:29N 37°53' W 122°25'1 0.0
2016-Jun-28 23:33N 37°53' W 122°24'7 7.6
2016-Jun-28 22:33N 37°45' W 122°21'1 0.3
2016-Jun-28 20:19N 37°45' W 122°21'0 0.2
2016-Jun-28 19:28N 37°45' W 122°21'0 0.1
2016-Jun-28 18:28N 37°45' W 122°21'0 0.0
2016-Jun-28 17:28N 37°45' W 122°21'0 0.1
2016-Jun-28 16:28N 37°45' W 122°21'0 0.5
2016-Jun-28 15:33N 37°46' W 122°21'3 3.2
2016-Jun-28 14:33N 37°49' W 122°21'6 5.6
2016-Jun-28 13:31N 37°54' W 122°23'9 0.2
2016-Jun-26 22:21N 38°03' W 122°20'4 4.8
2016-Jun-26 21:33N 38°03' W 122°16'0 0.0
2016-Jun-26 20:33N 38°03' W 122°16'0 0.0
2016-Jun-26 19:33N 38°03' W 122°16'0 0.0
2016-Jun-26 18:03N 38°03' W 122°16'0 0.0
2016-Jun-26 17:21N 38°03' W 122°16'0 0.0
2016-Jun-26 16:33N 38°03' W 122°16'0 0.0
2016-Jun-26 15:27N 38°03' W 122°16'0 0.0
2016-Jun-26 14:33N 38°03' W 122°16'0 0.0
2016-Jun-26 13:21N 38°03' W 122°16'0 0.0
2016-Jun-26 12:27N 38°03' W 122°16'0 0.0
2016-Jun-26 11:33N 38°03' W 122°16'0 0.0
2016-Jun-26 10:33N 38°03' W 122°16'0 0.0
2016-Jun-26 09:33N 38°03' W 122°16'0 0.0
2016-Jun-26 08:27N 38°03' W 122°16'0 0.0
2016-Jun-26 07:33N 38°03' W 122°16'0 0.0
2016-Jun-26 06:33N 38°03' W 122°16'0 0.0
2016-Jun-26 05:33N 38°03' W 122°16'0 0.0
2016-Jun-26 04:33N 38°03' W 122°16'3 2.9
2016-Jun-26 03:32N 38°03' W 122°19'6 6.4
2016-Jun-26 02:33N 37°59' W 122°25'7 6.6
2016-Jun-26 01:33N 37°52' W 122°24'7 6.9
2016-Jun-26 00:33N 37°46' W 122°21'1 1.2
2016-Jun-25 23:29N 37°45' W 122°20'0 0.0
2016-Jun-25 22:28N 37°45' W 122°20'0 0.0
2016-Jun-25 21:33N 37°45' W 122°20'0 0.0
2016-Jun-25 20:33N 37°45' W 122°20'0 0.1
2016-Jun-25 19:33N 37°45' W 122°20'8 7.6
2016-Jun-25 18:33N 37°52' W 122°24'10 7.1
2016-Jun-25 17:09N 38°02' W 122°23'6 8.6
2016-Jun-25 16:28N 38°04' W 122°16'6 4.8
2016-Jun-25 15:15N 38°02' W 122°08'0 0.0
2016-Jun-25 04:13N 38°03' W 122°08'5 6.9
2016-Jun-25 03:33N 38°04' W 122°13'8 8.2
2016-Jun-25 02:33N 38°01' W 122°23'8 7.6
2016-Jun-25 01:33N 37°54' W 122°25'2 2.4
2016-Jun-25 00:33N 37°51' W 122°23'6 6.4
2016-Jun-24 23:33N 37°48' W 122°17'0 0.0
2016-Jun-24 22:27N 37°48' W 122°17'0 0.0
2016-Jun-24 21:33N 37°48' W 122°17'0 0.0
2016-Jun-24 20:33N 37°48' W 122°17'3 3.3
2016-Jun-24 19:31N 37°46' W 122°21'0 0.1
2016-Jun-24 17:31N 37°46' W 122°21'0 0.0
2016-Jun-24 16:31N 37°46' W 122°21'0 0.0
2016-Jun-24 15:31N 37°46' W 122°21'0 0.0
2016-Jun-24 14:31N 37°46' W 122°21'0 0.0
2016-Jun-24 13:31N 37°46' W 122°21'0 0.0
2016-Jun-24 12:31N 37°46' W 122°21'0 0.1
2016-Jun-24 11:31N 37°46' W 122°21'1 0.8
2016-Jun-24 10:31N 37°45' W 122°21'0 0.1
2016-Jun-24 09:31N 37°45' W 122°21'0 0.0
2016-Jun-24 08:34N 37°45' W 122°21'0 0.0
2016-Jun-24 07:31N 37°45' W 122°21'0 0.0
2016-Jun-24 04:33N 37°46' W 122°21'0 0.1
2016-Jun-24 03:33N 37°46' W 122°21'0 0.1
2016-Jun-24 02:33N 37°46' W 122°21'0 0.0
2016-Jun-24 01:30N 37°46' W 122°21'  
2016-Jun-21 19:33N 38°03' W 122°16'0 0.0
2016-Jun-21 16:32N 38°03' W 122°16'0 0.0
2016-Jun-21 15:32N 38°03' W 122°16'0 0.0
2016-Jun-21 14:32N 38°03' W 122°16'0 0.0
2016-Jun-21 13:32N 38°03' W 122°16'0 0.0
2016-Jun-21 12:32N 38°03' W 122°16'0 0.0
2016-Jun-21 11:20N 38°03' W 122°16'0 0.0
2016-Jun-21 10:32N 38°03' W 122°16'0 0.0
2016-Jun-21 09:26N 38°03' W 122°16'0 0.0
2016-Jun-21 08:32N 38°03' W 122°16'0 0.0
2016-Jun-21 07:32N 38°03' W 122°16'1 1.0
2016-Jun-21 06:33N 38°03' W 122°17'16 8.0
2016-Jun-21 04:33N 37°48' W 122°22'5 4.0
2016-Jun-21 03:21N 37°44' W 122°19'0 0.1
2016-Jun-21 02:06N 37°44' W 122°19'0 0.2
2016-Jun-21 01:30N 37°44' W 122°19'0 0.0
2016-Jun-21 00:30N 37°44' W 122°19'0 0.0
2016-Jun-20 23:30N 37°44' W 122°19'0 0.1
2016-Jun-20 22:23N 37°44' W 122°19'5 5.9
2016-Jun-20 21:33N 37°48' W 122°23'1 0.9
2016-Jun-20 20:30N 37°48' W 122°24'0 0.1
2016-Jun-20 19:33N 37°48' W 122°24'0 0.0
2016-Jun-20 18:29N 37°48' W 122°24'0 0.1
2016-Jun-20 17:32N 37°48' W 122°24'0 0.0
2016-Jun-20 16:32N 37°48' W 122°24'0 0.0
2016-Jun-20 15:32N 37°48' W 122°24'0 0.0
2016-Jun-20 14:34N 37°48' W 122°24'1 0.5
2016-Jun-20 13:33N 37°49' W 122°24'6 5.0
2016-Jun-20 12:26N 37°54' W 122°24'  
Track history (hours):
 
Tides and Currents Weather Stations Pressure Air Temp Water Temp Dewpoint Dewpoint Depression Visibility Wind Speed Wind Dir Waves Ship Positions

Royal Melbourne

Owner: Harley Marine Services, Inc, Seattle, WA. More information available from US FCC via Universal Licensing System and Coast Guard Vessel Documentation Center.

Last reported at 2016-Jun-30 04:33 UTC. Time now 2016-Jun-30 05:08 UTC.
Position N 37°48' W 122°17'.

Length 30 m; draft 2 m.

Type: Tug. MMSI: 366998830.

Date/timePositionNaut miles runAvg speedWind from/ knotsBaromVisibWave heightAir tempDewpointWater temp
2016-Jun-30 04:33N 37°48' W 122°17'0 0.0
2016-Jun-30 03:33N 37°48' W 122°17'0 0.0
2016-Jun-30 02:33N 37°48' W 122°17'0 0.0
2016-Jun-30 01:33N 37°48' W 122°17'0 0.0
2016-Jun-30 00:33N 37°48' W 122°17'0 0.0
2016-Jun-29 23:33N 37°48' W 122°17'0 0.0
2016-Jun-29 22:33N 37°48' W 122°17'0 0.0
2016-Jun-29 21:33N 37°48' W 122°17'0 0.0
2016-Jun-29 20:33N 37°48' W 122°17'0 0.0
2016-Jun-29 19:33N 37°48' W 122°17'0 0.0
2016-Jun-29 18:33N 37°48' W 122°17'2 2.0
2016-Jun-29 17:34N 37°48' W 122°20'7 6.1
2016-Jun-29 16:29N 37°53' W 122°25'1 0.0
2016-Jun-28 23:33N 37°53' W 122°24'7 7.6
2016-Jun-28 22:33N 37°45' W 122°21'1 0.3
2016-Jun-28 20:19N 37°45' W 122°21'0 0.2
2016-Jun-28 19:28N 37°45' W 122°21'0 0.1
2016-Jun-28 18:28N 37°45' W 122°21'0 0.0
2016-Jun-28 17:28N 37°45' W 122°21'0 0.1
2016-Jun-28 16:28N 37°45' W 122°21'0 0.5
2016-Jun-28 15:33N 37°46' W 122°21'3 3.2
2016-Jun-28 14:33N 37°49' W 122°21'6 5.6
2016-Jun-28 13:31N 37°54' W 122°23'9 0.2
2016-Jun-26 22:21N 38°03' W 122°20'4 4.8
2016-Jun-26 21:33N 38°03' W 122°16'0 0.0
2016-Jun-26 20:33N 38°03' W 122°16'0 0.0
2016-Jun-26 19:33N 38°03' W 122°16'0 0.0
2016-Jun-26 18:03N 38°03' W 122°16'0 0.0
2016-Jun-26 17:21N 38°03' W 122°16'0 0.0
2016-Jun-26 16:33N 38°03' W 122°16'0 0.0
2016-Jun-26 15:27N 38°03' W 122°16'0 0.0
2016-Jun-26 14:33N 38°03' W 122°16'0 0.0
2016-Jun-26 13:21N 38°03' W 122°16'0 0.0
2016-Jun-26 12:27N 38°03' W 122°16'0 0.0
2016-Jun-26 11:33N 38°03' W 122°16'0 0.0
2016-Jun-26 10:33N 38°03' W 122°16'0 0.0
2016-Jun-26 09:33N 38°03' W 122°16'0 0.0
2016-Jun-26 08:27N 38°03' W 122°16'0 0.0
2016-Jun-26 07:33N 38°03' W 122°16'0 0.0
2016-Jun-26 06:33N 38°03' W 122°16'0 0.0
2016-Jun-26 05:33N 38°03' W 122°16'0 0.0
2016-Jun-26 04:33N 38°03' W 122°16'3 2.9
2016-Jun-26 03:32N 38°03' W 122°19'6 6.4
2016-Jun-26 02:33N 37°59' W 122°25'7 6.6
2016-Jun-26 01:33N 37°52' W 122°24'7 6.9
2016-Jun-26 00:33N 37°46' W 122°21'1 1.2
2016-Jun-25 23:29N 37°45' W 122°20'0 0.0
2016-Jun-25 22:28N 37°45' W 122°20'0 0.0
2016-Jun-25 21:33N 37°45' W 122°20'0 0.0
2016-Jun-25 20:33N 37°45' W 122°20'0 0.1
2016-Jun-25 19:33N 37°45' W 122°20'8 7.6
2016-Jun-25 18:33N 37°52' W 122°24'10 7.1
2016-Jun-25 17:09N 38°02' W 122°23'6 8.6
2016-Jun-25 16:28N 38°04' W 122°16'6 4.8
2016-Jun-25 15:15N 38°02' W 122°08'0 0.0
2016-Jun-25 04:13N 38°03' W 122°08'5 6.9
2016-Jun-25 03:33N 38°04' W 122°13'8 8.2
2016-Jun-25 02:33N 38°01' W 122°23'8 7.6
2016-Jun-25 01:33N 37°54' W 122°25'2 2.4
2016-Jun-25 00:33N 37°51' W 122°23'6 6.4
2016-Jun-24 23:33N 37°48' W 122°17'0 0.0
2016-Jun-24 22:27N 37°48' W 122°17'0 0.0
2016-Jun-24 21:33N 37°48' W 122°17'0 0.0
2016-Jun-24 20:33N 37°48' W 122°17'3 3.3
2016-Jun-24 19:31N 37°46' W 122°21'0 0.1
2016-Jun-24 17:31N 37°46' W 122°21'0 0.0
2016-Jun-24 16:31N 37°46' W 122°21'0 0.0
2016-Jun-24 15:31N 37°46' W 122°21'0 0.0
2016-Jun-24 14:31N 37°46' W 122°21'0 0.0
2016-Jun-24 13:31N 37°46' W 122°21'0 0.0
2016-Jun-24 12:31N 37°46' W 122°21'0 0.1
2016-Jun-24 11:31N 37°46' W 122°21'1 0.8
2016-Jun-24 10:31N 37°45' W 122°21'0 0.1
2016-Jun-24 09:31N 37°45' W 122°21'0 0.0
2016-Jun-24 08:34N 37°45' W 122°21'0 0.0
2016-Jun-24 07:31N 37°45' W 122°21'0 0.0
2016-Jun-24 04:33N 37°46' W 122°21'0 0.1
2016-Jun-24 03:33N 37°46' W 122°21'0 0.1
2016-Jun-24 02:33N 37°46' W 122°21'0 0.0
2016-Jun-24 01:30N 37°46' W 122°21'  
2016-Jun-21 19:33N 38°03' W 122°16'0 0.0
2016-Jun-21 16:32N 38°03' W 122°16'0 0.0
2016-Jun-21 15:32N 38°03' W 122°16'0 0.0
2016-Jun-21 14:32N 38°03' W 122°16'0 0.0
2016-Jun-21 13:32N 38°03' W 122°16'0 0.0
2016-Jun-21 12:32N 38°03' W 122°16'0 0.0
2016-Jun-21 11:20N 38°03' W 122°16'0 0.0
2016-Jun-21 10:32N 38°03' W 122°16'0 0.0
2016-Jun-21 09:26N 38°03' W 122°16'0 0.0
2016-Jun-21 08:32N 38°03' W 122°16'0 0.0
2016-Jun-21 07:32N 38°03' W 122°16'1 1.0
2016-Jun-21 06:33N 38°03' W 122°17'16 8.0
2016-Jun-21 04:33N 37°48' W 122°22'5 4.0
2016-Jun-21 03:21N 37°44' W 122°19'0 0.1
2016-Jun-21 02:06N 37°44' W 122°19'0 0.2
2016-Jun-21 01:30N 37°44' W 122°19'0 0.0
2016-Jun-21 00:30N 37°44' W 122°19'0 0.0
2016-Jun-20 23:30N 37°44' W 122°19'0 0.1
2016-Jun-20 22:23N 37°44' W 122°19'5 5.9
2016-Jun-20 21:33N 37°48' W 122°23'1 0.9
2016-Jun-20 20:30N 37°48' W 122°24'0 0.1
2016-Jun-20 19:33N 37°48' W 122°24'0 0.0
2016-Jun-20 18:29N 37°48' W 122°24'0 0.1
2016-Jun-20 17:32N 37°48' W 122°24'0 0.0
2016-Jun-20 16:32N 37°48' W 122°24'0 0.0
2016-Jun-20 15:32N 37°48' W 122°24'0 0.0
2016-Jun-20 14:34N 37°48' W 122°24'1 0.5
2016-Jun-20 13:33N 37°49' W 122°24'6 5.0
2016-Jun-20 12:26N 37°54' W 122°24'  

Dump ship's entire track history